sensor_id;sensor_type;location;lat;lon;timestamp;P1;durP1;ratioP1;P2;durP2;ratioP2
31754;SDS011;18325;52.018;4.726;2023-04-08T00:00:18;30.17;;;13.67;;
31754;SDS011;18325;52.018;4.726;2023-04-08T00:02:44;32.37;;;12.63;;
31754;SDS011;18325;52.018;4.726;2023-04-08T00:05:11;31.73;;;12.23;;
31754;SDS011;18325;52.018;4.726;2023-04-08T00:07:37;28.10;;;12.97;;
31754;SDS011;18325;52.018;4.726;2023-04-08T00:10:04;32.07;;;12.63;;
31754;SDS011;18325;52.018;4.726;2023-04-08T00:12:33;33.40;;;13.97;;
31754;SDS011;18325;52.018;4.726;2023-04-08T00:14:59;34.17;;;13.60;;
31754;SDS011;18325;52.018;4.726;2023-04-08T00:17:26;36.80;;;12.87;;
31754;SDS011;18325;52.018;4.726;2023-04-08T00:19:52;25.40;;;12.00;;
31754;SDS011;18325;52.018;4.726;2023-04-08T00:22:19;30.73;;;14.33;;
31754;SDS011;18325;52.018;4.726;2023-04-08T00:24:46;35.37;;;13.13;;
31754;SDS011;18325;52.018;4.726;2023-04-08T00:27:12;26.70;;;13.37;;
31754;SDS011;18325;52.018;4.726;2023-04-08T00:29:40;28.17;;;12.80;;
31754;SDS011;18325;52.018;4.726;2023-04-08T00:32:06;33.27;;;13.60;;
31754;SDS011;18325;52.018;4.726;2023-04-08T00:34:33;28.40;;;12.50;;
31754;SDS011;18325;52.018;4.726;2023-04-08T00:36:59;28.27;;;13.13;;
31754;SDS011;18325;52.018;4.726;2023-04-08T00:39:26;35.63;;;13.27;;
31754;SDS011;18325;52.018;4.726;2023-04-08T00:41:52;32.93;;;14.07;;
31754;SDS011;18325;52.018;4.726;2023-04-08T00:44:20;30.43;;;12.17;;
31754;SDS011;18325;52.018;4.726;2023-04-08T00:46:48;34.77;;;12.67;;
31754;SDS011;18325;52.018;4.726;2023-04-08T00:49:14;32.73;;;13.30;;
31754;SDS011;18325;52.018;4.726;2023-04-08T00:51:41;28.17;;;13.20;;
31754;SDS011;18325;52.018;4.726;2023-04-08T00:54:07;29.10;;;12.20;;
31754;SDS011;18325;52.018;4.726;2023-04-08T00:56:34;34.90;;;12.30;;
31754;SDS011;18325;52.018;4.726;2023-04-08T00:59:01;27.63;;;11.50;;
31754;SDS011;18325;52.018;4.726;2023-04-08T01:01:29;30.47;;;12.50;;
31754;SDS011;18325;52.018;4.726;2023-04-08T01:04:04;37.53;;;13.60;;
31754;SDS011;18325;52.018;4.726;2023-04-08T01:06:34;29.50;;;12.40;;
31754;SDS011;18325;52.018;4.726;2023-04-08T01:09:06;28.53;;;13.43;;
31754;SDS011;18325;52.018;4.726;2023-04-08T01:11:33;30.43;;;13.63;;
31754;SDS011;18325;52.018;4.726;2023-04-08T01:14:00;31.07;;;12.40;;
31754;SDS011;18325;52.018;4.726;2023-04-08T01:16:30;29.93;;;12.73;;
31754;SDS011;18325;52.018;4.726;2023-04-08T01:18:57;30.17;;;13.50;;
31754;SDS011;18325;52.018;4.726;2023-04-08T01:21:25;30.37;;;12.60;;
31754;SDS011;18325;52.018;4.726;2023-04-08T01:23:53;31.97;;;13.63;;
31754;SDS011;18325;52.018;4.726;2023-04-08T01:26:27;30.67;;;13.47;;
31754;SDS011;18325;52.018;4.726;2023-04-08T01:28:59;30.10;;;12.10;;
31754;SDS011;18325;52.018;4.726;2023-04-08T01:31:26;33.93;;;12.73;;
31754;SDS011;18325;52.018;4.726;2023-04-08T01:33:52;29.40;;;13.07;;
31754;SDS011;18325;52.018;4.726;2023-04-08T01:36:19;31.10;;;12.87;;
31754;SDS011;18325;52.018;4.726;2023-04-08T01:38:46;28.20;;;12.47;;
31754;SDS011;18325;52.018;4.726;2023-04-08T01:41:13;32.50;;;12.60;;
31754;SDS011;18325;52.018;4.726;2023-04-08T01:43:42;31.17;;;12.23;;
31754;SDS011;18325;52.018;4.726;2023-04-08T01:46:09;31.63;;;13.17;;
31754;SDS011;18325;52.018;4.726;2023-04-08T01:48:37;32.77;;;13.83;;
31754;SDS011;18325;52.018;4.726;2023-04-08T01:51:04;34.87;;;12.00;;
31754;SDS011;18325;52.018;4.726;2023-04-08T01:53:31;28.80;;;11.93;;
31754;SDS011;18325;52.018;4.726;2023-04-08T01:56:00;23.70;;;11.13;;
31754;SDS011;18325;52.018;4.726;2023-04-08T01:58:31;27.30;;;12.00;;
31754;SDS011;18325;52.018;4.726;2023-04-08T02:01:04;29.30;;;12.03;;
31754;SDS011;18325;52.018;4.726;2023-04-08T02:03:31;27.37;;;12.47;;
31754;SDS011;18325;52.018;4.726;2023-04-08T02:05:59;22.93;;;10.67;;
31754;SDS011;18325;52.018;4.726;2023-04-08T02:08:25;28.30;;;11.77;;
31754;SDS011;18325;52.018;4.726;2023-04-08T02:10:51;29.40;;;11.03;;
31754;SDS011;18325;52.018;4.726;2023-04-08T02:13:18;27.90;;;12.30;;
31754;SDS011;18325;52.018;4.726;2023-04-08T02:15:45;23.97;;;12.07;;
31754;SDS011;18325;52.018;4.726;2023-04-08T02:18:20;20.83;;;10.20;;
31754;SDS011;18325;52.018;4.726;2023-04-08T02:20:49;26.27;;;11.33;;
31754;SDS011;18325;52.018;4.726;2023-04-08T02:23:21;26.17;;;11.80;;
31754;SDS011;18325;52.018;4.726;2023-04-08T02:25:49;27.67;;;12.80;;
31754;SDS011;18325;52.018;4.726;2023-04-08T02:28:17;23.80;;;10.53;;
31754;SDS011;18325;52.018;4.726;2023-04-08T02:30:46;23.03;;;10.63;;
31754;SDS011;18325;52.018;4.726;2023-04-08T02:33:14;24.50;;;11.70;;
31754;SDS011;18325;52.018;4.726;2023-04-08T02:35:43;24.70;;;10.90;;
31754;SDS011;18325;52.018;4.726;2023-04-08T02:38:10;23.60;;;10.00;;
31754;SDS011;18325;52.018;4.726;2023-04-08T02:40:36;20.27;;;9.30;;
31754;SDS011;18325;52.018;4.726;2023-04-08T02:43:03;19.10;;;9.93;;
31754;SDS011;18325;52.018;4.726;2023-04-08T02:45:30;25.43;;;9.63;;
31754;SDS011;18325;52.018;4.726;2023-04-08T02:47:57;23.07;;;10.27;;
31754;SDS011;18325;52.018;4.726;2023-04-08T02:50:26;20.77;;;10.43;;
31754;SDS011;18325;52.018;4.726;2023-04-08T02:52:53;23.73;;;10.33;;
31754;SDS011;18325;52.018;4.726;2023-04-08T02:55:20;25.70;;;9.23;;
31754;SDS011;18325;52.018;4.726;2023-04-08T02:57:47;20.30;;;9.00;;
31754;SDS011;18325;52.018;4.726;2023-04-08T03:00:13;18.70;;;8.60;;
31754;SDS011;18325;52.018;4.726;2023-04-08T03:02:41;23.77;;;7.80;;
31754;SDS011;18325;52.018;4.726;2023-04-08T03:05:07;21.57;;;8.73;;
31754;SDS011;18325;52.018;4.726;2023-04-08T03:07:36;21.87;;;8.30;;
31754;SDS011;18325;52.018;4.726;2023-04-08T03:10:03;13.47;;;7.10;;
31754;SDS011;18325;52.018;4.726;2023-04-08T03:12:30;18.13;;;7.33;;
31754;SDS011;18325;52.018;4.726;2023-04-08T03:14:57;24.43;;;8.67;;
31754;SDS011;18325;52.018;4.726;2023-04-08T03:17:23;16.40;;;8.33;;
31754;SDS011;18325;52.018;4.726;2023-04-08T03:19:50;19.83;;;7.47;;
31754;SDS011;18325;52.018;4.726;2023-04-08T03:22:16;38.10;;;7.77;;
31754;SDS011;18325;52.018;4.726;2023-04-08T03:24:44;23.10;;;6.90;;
31754;SDS011;18325;52.018;4.726;2023-04-08T03:27:10;21.03;;;7.33;;
31754;SDS011;18325;52.018;4.726;2023-04-08T03:29:38;11.30;;;6.87;;
31754;SDS011;18325;52.018;4.726;2023-04-08T03:32:04;17.00;;;6.13;;
31754;SDS011;18325;52.018;4.726;2023-04-08T03:34:32;15.73;;;6.83;;
31754;SDS011;18325;52.018;4.726;2023-04-08T03:36:59;16.73;;;7.07;;
31754;SDS011;18325;52.018;4.726;2023-04-08T03:39:25;24.93;;;7.37;;
31754;SDS011;18325;52.018;4.726;2023-04-08T03:41:53;33.43;;;6.93;;
31754;SDS011;18325;52.018;4.726;2023-04-08T03:44:19;17.67;;;6.97;;
31754;SDS011;18325;52.018;4.726;2023-04-08T03:46:46;18.43;;;7.57;;
31754;SDS011;18325;52.018;4.726;2023-04-08T03:49:12;30.10;;;7.53;;
31754;SDS011;18325;52.018;4.726;2023-04-08T03:51:39;16.83;;;7.80;;
31754;SDS011;18325;52.018;4.726;2023-04-08T03:54:05;25.77;;;8.00;;
31754;SDS011;18325;52.018;4.726;2023-04-08T03:56:32;19.43;;;8.10;;
31754;SDS011;18325;52.018;4.726;2023-04-08T03:59:00;27.27;;;7.37;;
31754;SDS011;18325;52.018;4.726;2023-04-08T04:01:27;17.87;;;8.70;;
31754;SDS011;18325;52.018;4.726;2023-04-08T04:03:54;20.10;;;8.17;;
31754;SDS011;18325;52.018;4.726;2023-04-08T04:06:20;17.90;;;7.17;;
31754;SDS011;18325;52.018;4.726;2023-04-08T04:08:46;21.63;;;8.07;;
31754;SDS011;18325;52.018;4.726;2023-04-08T04:11:14;27.87;;;8.97;;
31754;SDS011;18325;52.018;4.726;2023-04-08T04:13:40;22.13;;;9.07;;
31754;SDS011;18325;52.018;4.726;2023-04-08T04:16:08;23.93;;;6.87;;
31754;SDS011;18325;52.018;4.726;2023-04-08T04:18:35;27.53;;;8.03;;
31754;SDS011;18325;52.018;4.726;2023-04-08T04:21:03;13.97;;;6.57;;
31754;SDS011;18325;52.018;4.726;2023-04-08T04:23:30;26.00;;;7.33;;
31754;SDS011;18325;52.018;4.726;2023-04-08T04:25:56;13.37;;;6.63;;
31754;SDS011;18325;52.018;4.726;2023-04-08T04:28:23;18.60;;;8.00;;
31754;SDS011;18325;52.018;4.726;2023-04-08T04:30:49;14.77;;;7.57;;
31754;SDS011;18325;52.018;4.726;2023-04-08T04:33:17;12.57;;;6.97;;
31754;SDS011;18325;52.018;4.726;2023-04-08T04:35:44;20.10;;;7.63;;
31754;SDS011;18325;52.018;4.726;2023-04-08T04:38:10;24.03;;;6.90;;
31754;SDS011;18325;52.018;4.726;2023-04-08T04:40:37;36.20;;;8.73;;
31754;SDS011;18325;52.018;4.726;2023-04-08T04:43:04;12.33;;;6.73;;
31754;SDS011;18325;52.018;4.726;2023-04-08T04:45:31;17.97;;;7.63;;
31754;SDS011;18325;52.018;4.726;2023-04-08T04:47:57;17.57;;;7.47;;
31754;SDS011;18325;52.018;4.726;2023-04-08T04:50:25;19.20;;;7.47;;
31754;SDS011;18325;52.018;4.726;2023-04-08T04:52:51;23.30;;;7.23;;
31754;SDS011;18325;52.018;4.726;2023-04-08T04:55:18;22.23;;;8.20;;
31754;SDS011;18325;52.018;4.726;2023-04-08T04:57:46;15.87;;;8.37;;
31754;SDS011;18325;52.018;4.726;2023-04-08T05:00:13;22.63;;;8.87;;
31754;SDS011;18325;52.018;4.726;2023-04-08T05:02:40;25.30;;;8.60;;
31754;SDS011;18325;52.018;4.726;2023-04-08T05:05:06;18.17;;;8.90;;
31754;SDS011;18325;52.018;4.726;2023-04-08T05:07:35;24.23;;;8.07;;
31754;SDS011;18325;52.018;4.726;2023-04-08T05:10:02;16.60;;;8.87;;
31754;SDS011;18325;52.018;4.726;2023-04-08T05:12:28;17.13;;;8.53;;
31754;SDS011;18325;52.018;4.726;2023-04-08T05:14:56;18.57;;;8.53;;
31754;SDS011;18325;52.018;4.726;2023-04-08T05:17:23;15.53;;;8.20;;
31754;SDS011;18325;52.018;4.726;2023-04-08T05:19:49;25.13;;;8.53;;
31754;SDS011;18325;52.018;4.726;2023-04-08T05:22:16;17.03;;;9.00;;
31754;SDS011;18325;52.018;4.726;2023-04-08T05:24:43;29.20;;;8.90;;
31754;SDS011;18325;52.018;4.726;2023-04-08T05:27:10;16.60;;;8.20;;
31754;SDS011;18325;52.018;4.726;2023-04-08T05:29:36;16.57;;;8.40;;
31754;SDS011;18325;52.018;4.726;2023-04-08T05:32:03;21.80;;;9.53;;
31754;SDS011;18325;52.018;4.726;2023-04-08T05:34:30;16.77;;;8.30;;
31754;SDS011;18325;52.018;4.726;2023-04-08T05:36:56;21.77;;;8.73;;
31754;SDS011;18325;52.018;4.726;2023-04-08T05:39:23;19.17;;;8.63;;
31754;SDS011;18325;52.018;4.726;2023-04-08T05:41:51;25.63;;;9.40;;
31754;SDS011;18325;52.018;4.726;2023-04-08T05:44:18;25.30;;;9.23;;
31754;SDS011;18325;52.018;4.726;2023-04-08T05:46:44;17.50;;;8.97;;
31754;SDS011;18325;52.018;4.726;2023-04-08T05:49:11;26.20;;;9.33;;
31754;SDS011;18325;52.018;4.726;2023-04-08T05:51:37;22.57;;;8.07;;
31754;SDS011;18325;52.018;4.726;2023-04-08T05:54:03;15.00;;;8.23;;
31754;SDS011;18325;52.018;4.726;2023-04-08T05:56:30;18.10;;;9.10;;
31754;SDS011;18325;52.018;4.726;2023-04-08T05:58:58;15.63;;;8.07;;
31754;SDS011;18325;52.018;4.726;2023-04-08T06:01:24;15.90;;;7.93;;
31754;SDS011;18325;52.018;4.726;2023-04-08T06:03:51;16.90;;;8.50;;
31754;SDS011;18325;52.018;4.726;2023-04-08T06:06:19;20.63;;;10.23;;
31754;SDS011;18325;52.018;4.726;2023-04-08T06:08:46;19.70;;;8.93;;
31754;SDS011;18325;52.018;4.726;2023-04-08T06:11:12;18.53;;;8.27;;
31754;SDS011;18325;52.018;4.726;2023-04-08T06:13:39;17.50;;;8.87;;
31754;SDS011;18325;52.018;4.726;2023-04-08T06:16:11;18.57;;;8.93;;
31754;SDS011;18325;52.018;4.726;2023-04-08T06:18:39;21.80;;;8.93;;
31754;SDS011;18325;52.018;4.726;2023-04-08T06:21:06;21.17;;;9.77;;
31754;SDS011;18325;52.018;4.726;2023-04-08T06:23:32;22.00;;;10.20;;
31754;SDS011;18325;52.018;4.726;2023-04-08T06:25:59;27.03;;;10.60;;
31754;SDS011;18325;52.018;4.726;2023-04-08T06:28:27;27.23;;;10.50;;
31754;SDS011;18325;52.018;4.726;2023-04-08T06:30:54;27.77;;;10.03;;
31754;SDS011;18325;52.018;4.726;2023-04-08T06:33:22;20.53;;;10.33;;
31754;SDS011;18325;52.018;4.726;2023-04-08T06:35:49;23.07;;;10.57;;
31754;SDS011;18325;52.018;4.726;2023-04-08T06:38:16;25.03;;;11.53;;
31754;SDS011;18325;52.018;4.726;2023-04-08T06:40:42;39.20;;;12.63;;
31754;SDS011;18325;52.018;4.726;2023-04-08T06:43:09;25.70;;;11.33;;
31754;SDS011;18325;52.018;4.726;2023-04-08T06:45:35;28.47;;;11.67;;
31754;SDS011;18325;52.018;4.726;2023-04-08T06:48:01;35.53;;;12.63;;
31754;SDS011;18325;52.018;4.726;2023-04-08T06:50:29;37.80;;;12.80;;
31754;SDS011;18325;52.018;4.726;2023-04-08T06:52:56;25.20;;;12.33;;
31754;SDS011;18325;52.018;4.726;2023-04-08T06:55:22;28.37;;;12.43;;
31754;SDS011;18325;52.018;4.726;2023-04-08T06:57:48;35.33;;;13.43;;
31754;SDS011;18325;52.018;4.726;2023-04-08T07:00:15;29.67;;;12.00;;
31754;SDS011;18325;52.018;4.726;2023-04-08T07:02:42;33.10;;;13.37;;
31754;SDS011;18325;52.018;4.726;2023-04-08T07:05:08;29.43;;;12.23;;
31754;SDS011;18325;52.018;4.726;2023-04-08T07:07:36;28.50;;;12.50;;
31754;SDS011;18325;52.018;4.726;2023-04-08T07:10:03;27.80;;;13.63;;
31754;SDS011;18325;52.018;4.726;2023-04-08T07:12:30;30.07;;;14.30;;
31754;SDS011;18325;52.018;4.726;2023-04-08T07:14:56;32.50;;;14.30;;
31754;SDS011;18325;52.018;4.726;2023-04-08T07:17:23;36.50;;;14.30;;
31754;SDS011;18325;52.018;4.726;2023-04-08T07:19:50;33.93;;;14.00;;
31754;SDS011;18325;52.018;4.726;2023-04-08T07:22:16;31.43;;;12.77;;
31754;SDS011;18325;52.018;4.726;2023-04-08T07:24:44;24.93;;;13.13;;
31754;SDS011;18325;52.018;4.726;2023-04-08T07:27:13;31.80;;;13.00;;
31754;SDS011;18325;52.018;4.726;2023-04-08T07:29:40;29.40;;;13.20;;
31754;SDS011;18325;52.018;4.726;2023-04-08T07:32:06;27.93;;;12.13;;
31754;SDS011;18325;52.018;4.726;2023-04-08T07:34:33;24.00;;;11.67;;
31754;SDS011;18325;52.018;4.726;2023-04-08T07:36:59;27.60;;;12.27;;
31754;SDS011;18325;52.018;4.726;2023-04-08T07:39:26;24.20;;;11.60;;
31754;SDS011;18325;52.018;4.726;2023-04-08T07:41:54;24.53;;;12.57;;
31754;SDS011;18325;52.018;4.726;2023-04-08T07:44:21;24.50;;;10.73;;
31754;SDS011;18325;52.018;4.726;2023-04-08T07:46:47;27.97;;;11.77;;
31754;SDS011;18325;52.018;4.726;2023-04-08T07:49:15;29.87;;;11.00;;
31754;SDS011;18325;52.018;4.726;2023-04-08T07:51:42;23.80;;;10.70;;
31754;SDS011;18325;52.018;4.726;2023-04-08T07:54:08;27.83;;;12.27;;
31754;SDS011;18325;52.018;4.726;2023-04-08T07:56:36;21.70;;;10.40;;
31754;SDS011;18325;52.018;4.726;2023-04-08T07:59:05;26.57;;;13.33;;
31754;SDS011;18325;52.018;4.726;2023-04-08T08:01:32;20.63;;;12.33;;
31754;SDS011;18325;52.018;4.726;2023-04-08T08:03:59;24.60;;;12.17;;
31754;SDS011;18325;52.018;4.726;2023-04-08T08:06:25;21.50;;;11.93;;
31754;SDS011;18325;52.018;4.726;2023-04-08T08:08:52;22.87;;;11.00;;
31754;SDS011;18325;52.018;4.726;2023-04-08T08:11:18;23.90;;;11.80;;
31754;SDS011;18325;52.018;4.726;2023-04-08T08:13:45;22.83;;;10.63;;
31754;SDS011;18325;52.018;4.726;2023-04-08T08:16:13;23.20;;;11.63;;
31754;SDS011;18325;52.018;4.726;2023-04-08T08:18:40;22.57;;;10.77;;
31754;SDS011;18325;52.018;4.726;2023-04-08T08:21:06;25.00;;;11.73;;
31754;SDS011;18325;52.018;4.726;2023-04-08T08:23:33;25.57;;;11.83;;
31754;SDS011;18325;52.018;4.726;2023-04-08T08:26:00;22.43;;;11.87;;
31754;SDS011;18325;52.018;4.726;2023-04-08T08:28:27;26.80;;;13.17;;
31754;SDS011;18325;52.018;4.726;2023-04-08T08:30:54;22.93;;;12.13;;
31754;SDS011;18325;52.018;4.726;2023-04-08T08:33:21;21.63;;;12.07;;
31754;SDS011;18325;52.018;4.726;2023-04-08T08:35:48;23.47;;;11.73;;
31754;SDS011;18325;52.018;4.726;2023-04-08T08:38:14;21.27;;;11.07;;
31754;SDS011;18325;52.018;4.726;2023-04-08T08:40:41;21.90;;;11.07;;
31754;SDS011;18325;52.018;4.726;2023-04-08T08:43:08;22.77;;;11.80;;
31754;SDS011;18325;52.018;4.726;2023-04-08T08:45:37;18.97;;;10.80;;
31754;SDS011;18325;52.018;4.726;2023-04-08T08:48:04;22.10;;;11.17;;
31754;SDS011;18325;52.018;4.726;2023-04-08T08:50:33;18.83;;;11.10;;
31754;SDS011;18325;52.018;4.726;2023-04-08T08:53:00;17.90;;;9.70;;
31754;SDS011;18325;52.018;4.726;2023-04-08T08:55:28;21.43;;;12.03;;
31754;SDS011;18325;52.018;4.726;2023-04-08T08:57:56;20.17;;;11.50;;
31754;SDS011;18325;52.018;4.726;2023-04-08T09:00:29;24.03;;;12.60;;
31754;SDS011;18325;52.018;4.726;2023-04-08T09:03:12;24.57;;;11.30;;
31754;SDS011;18325;52.018;4.726;2023-04-08T09:05:47;20.33;;;10.57;;
31754;SDS011;18325;52.018;4.726;2023-04-08T09:08:27;21.20;;;12.03;;
31754;SDS011;18325;52.018;4.726;2023-04-08T09:10:55;22.10;;;11.97;;
31754;SDS011;18325;52.018;4.726;2023-04-08T09:13:22;19.03;;;11.07;;
31754;SDS011;18325;52.018;4.726;2023-04-08T09:16:02;22.30;;;11.40;;
31754;SDS011;18325;52.018;4.726;2023-04-08T09:18:30;20.00;;;11.30;;
31754;SDS011;18325;52.018;4.726;2023-04-08T09:20:59;24.23;;;12.40;;
31754;SDS011;18325;52.018;4.726;2023-04-08T09:23:36;20.43;;;11.73;;
31754;SDS011;18325;52.018;4.726;2023-04-08T09:26:06;22.40;;;11.77;;
31754;SDS011;18325;52.018;4.726;2023-04-08T09:28:33;21.70;;;12.97;;
31754;SDS011;18325;52.018;4.726;2023-04-08T09:30:59;22.10;;;13.17;;
31754;SDS011;18325;52.018;4.726;2023-04-08T09:33:29;24.57;;;13.43;;
31754;SDS011;18325;52.018;4.726;2023-04-08T09:35:55;28.20;;;14.70;;
31754;SDS011;18325;52.018;4.726;2023-04-08T09:38:23;30.50;;;15.37;;
31754;SDS011;18325;52.018;4.726;2023-04-08T09:40:50;26.57;;;15.57;;
31754;SDS011;18325;52.018;4.726;2023-04-08T09:43:17;28.57;;;15.43;;
31754;SDS011;18325;52.018;4.726;2023-04-08T09:45:47;24.03;;;14.03;;
31754;SDS011;18325;52.018;4.726;2023-04-08T09:48:16;23.33;;;13.37;;
31754;SDS011;18325;52.018;4.726;2023-04-08T09:50:49;20.83;;;13.07;;
31754;SDS011;18325;52.018;4.726;2023-04-08T09:53:18;21.03;;;12.87;;
31754;SDS011;18325;52.018;4.726;2023-04-08T09:55:49;21.60;;;12.50;;
31754;SDS011;18325;52.018;4.726;2023-04-08T09:58:17;21.50;;;12.80;;
31754;SDS011;18325;52.018;4.726;2023-04-08T10:00:48;23.03;;;12.93;;
31754;SDS011;18325;52.018;4.726;2023-04-08T10:03:18;19.47;;;12.73;;
31754;SDS011;18325;52.018;4.726;2023-04-08T10:05:51;19.70;;;12.33;;
31754;SDS011;18325;52.018;4.726;2023-04-08T10:08:18;21.07;;;12.00;;
31754;SDS011;18325;52.018;4.726;2023-04-08T10:10:45;18.13;;;11.77;;
31754;SDS011;18325;52.018;4.726;2023-04-08T10:13:13;15.77;;;11.50;;
31754;SDS011;18325;52.018;4.726;2023-04-08T10:15:40;16.43;;;10.93;;
31754;SDS011;18325;52.018;4.726;2023-04-08T10:20:58;14.67;;;8.90;;
31754;SDS011;18325;52.018;4.726;2023-04-08T10:26:31;14.53;;;8.73;;
31754;SDS011;18325;52.018;4.726;2023-04-08T10:32:04;11.10;;;7.40;;
31754;SDS011;18325;52.018;4.726;2023-04-08T10:34:33;12.87;;;8.17;;
31754;SDS011;18325;52.018;4.726;2023-04-08T10:37:00;14.83;;;9.03;;
31754;SDS011;18325;52.018;4.726;2023-04-08T10:42:43;12.60;;;7.97;;
31754;SDS011;18325;52.018;4.726;2023-04-08T10:45:16;11.60;;;7.70;;
31754;SDS011;18325;52.018;4.726;2023-04-08T10:47:43;12.90;;;8.03;;
31754;SDS011;18325;52.018;4.726;2023-04-08T10:50:13;12.33;;;7.87;;
31754;SDS011;18325;52.018;4.726;2023-04-08T10:52:45;13.73;;;8.17;;
31754;SDS011;18325;52.018;4.726;2023-04-08T10:55:11;10.60;;;7.73;;
31754;SDS011;18325;52.018;4.726;2023-04-08T10:57:38;10.83;;;7.63;;
31754;SDS011;18325;52.018;4.726;2023-04-08T11:00:06;11.53;;;7.97;;
31754;SDS011;18325;52.018;4.726;2023-04-08T11:02:38;10.10;;;7.33;;
31754;SDS011;18325;52.018;4.726;2023-04-08T11:05:04;11.13;;;7.63;;
31754;SDS011;18325;52.018;4.726;2023-04-08T11:07:31;10.63;;;7.60;;
31754;SDS011;18325;52.018;4.726;2023-04-08T11:10:01;12.53;;;8.23;;
31754;SDS011;18325;52.018;4.726;2023-04-08T11:12:28;11.23;;;7.27;;
31754;SDS011;18325;52.018;4.726;2023-04-08T11:14:54;12.77;;;8.03;;
31754;SDS011;18325;52.018;4.726;2023-04-08T11:17:21;11.40;;;8.07;;
31754;SDS011;18325;52.018;4.726;2023-04-08T11:19:49;12.63;;;8.63;;
31754;SDS011;18325;52.018;4.726;2023-04-08T11:22:15;11.00;;;7.63;;
31754;SDS011;18325;52.018;4.726;2023-04-08T11:24:42;10.97;;;7.97;;
31754;SDS011;18325;52.018;4.726;2023-04-08T11:27:09;11.33;;;8.33;;
31754;SDS011;18325;52.018;4.726;2023-04-08T11:29:35;11.93;;;7.07;;
31754;SDS011;18325;52.018;4.726;2023-04-08T11:32:02;10.57;;;7.40;;
31754;SDS011;18325;52.018;4.726;2023-04-08T11:34:29;10.67;;;8.00;;
31754;SDS011;18325;52.018;4.726;2023-04-08T11:36:56;12.20;;;8.30;;
31754;SDS011;18325;52.018;4.726;2023-04-08T11:39:23;10.97;;;8.03;;
31754;SDS011;18325;52.018;4.726;2023-04-08T11:41:50;8.73;;;7.70;;
31754;SDS011;18325;52.018;4.726;2023-04-08T11:44:17;11.03;;;7.10;;
31754;SDS011;18325;52.018;4.726;2023-04-08T11:46:50;8.47;;;6.77;;
31754;SDS011;18325;52.018;4.726;2023-04-08T11:49:19;9.40;;;7.53;;
31754;SDS011;18325;52.018;4.726;2023-04-08T11:51:55;12.80;;;8.47;;
31754;SDS011;18325;52.018;4.726;2023-04-08T11:54:27;11.87;;;7.00;;
31754;SDS011;18325;52.018;4.726;2023-04-08T11:56:53;11.10;;;7.50;;
31754;SDS011;18325;52.018;4.726;2023-04-08T11:59:22;12.67;;;7.30;;
31754;SDS011;18325;52.018;4.726;2023-04-08T12:01:48;11.47;;;7.23;;
31754;SDS011;18325;52.018;4.726;2023-04-08T12:04:15;9.77;;;6.95;;
31754;SDS011;18325;52.018;4.726;2023-04-08T12:06:41;8.68;;;6.80;;
31754;SDS011;18325;52.018;4.726;2023-04-08T12:09:12;11.03;;;7.07;;
31754;SDS011;18325;52.018;4.726;2023-04-08T12:11:38;11.57;;;7.47;;
31754;SDS011;18325;52.018;4.726;2023-04-08T12:14:05;9.63;;;7.20;;
31754;SDS011;18325;52.018;4.726;2023-04-08T12:16:31;8.77;;;6.40;;
31754;SDS011;18325;52.018;4.726;2023-04-08T12:18:58;10.20;;;6.53;;
31754;SDS011;18325;52.018;4.726;2023-04-08T12:21:24;8.70;;;5.60;;
31754;SDS011;18325;52.018;4.726;2023-04-08T12:23:51;11.35;;;7.32;;
31754;SDS011;18325;52.018;4.726;2023-04-08T12:26:19;11.88;;;8.25;;
31754;SDS011;18325;52.018;4.726;2023-04-08T12:28:46;8.35;;;6.10;;
31754;SDS011;18325;52.018;4.726;2023-04-08T12:31:12;8.80;;;6.20;;
31754;SDS011;18325;52.018;4.726;2023-04-08T12:33:38;10.07;;;6.45;;
31754;SDS011;18325;52.018;4.726;2023-04-08T12:36:05;9.25;;;6.32;;
31754;SDS011;18325;52.018;4.726;2023-04-08T12:38:31;11.25;;;6.90;;
31754;SDS011;18325;52.018;4.726;2023-04-08T12:40:58;10.23;;;6.63;;
31754;SDS011;18325;52.018;4.726;2023-04-08T12:43:26;11.35;;;6.75;;
31754;SDS011;18325;52.018;4.726;2023-04-08T12:45:52;8.17;;;5.73;;
31754;SDS011;18325;52.018;4.726;2023-04-08T12:48:19;9.30;;;5.60;;
31754;SDS011;18325;52.018;4.726;2023-04-08T12:50:45;7.97;;;6.13;;
31754;SDS011;18325;52.018;4.726;2023-04-08T12:53:11;11.07;;;7.00;;
31754;SDS011;18325;52.018;4.726;2023-04-08T12:55:38;9.30;;;5.97;;
31754;SDS011;18325;52.018;4.726;2023-04-08T12:58:05;8.52;;;6.18;;
31754;SDS011;18325;52.018;4.726;2023-04-08T13:00:33;8.40;;;5.78;;
31754;SDS011;18325;52.018;4.726;2023-04-08T13:03:01;11.25;;;6.50;;
31754;SDS011;18325;52.018;4.726;2023-04-08T13:05:28;10.07;;;6.85;;
31754;SDS011;18325;52.018;4.726;2023-04-08T13:07:55;8.48;;;5.63;;
31754;SDS011;18325;52.018;4.726;2023-04-08T13:10:21;11.05;;;6.40;;
31754;SDS011;18325;52.018;4.726;2023-04-08T13:12:47;8.98;;;6.18;;
31754;SDS011;18325;52.018;4.726;2023-04-08T13:15:14;9.57;;;6.65;;
31754;SDS011;18325;52.018;4.726;2023-04-08T13:17:42;13.88;;;7.03;;
31754;SDS011;18325;52.018;4.726;2023-04-08T13:20:09;26.83;;;15.55;;
31754;SDS011;18325;52.018;4.726;2023-04-08T13:22:35;11.20;;;7.37;;
31754;SDS011;18325;52.018;4.726;2023-04-08T13:25:02;9.80;;;6.25;;
31754;SDS011;18325;52.018;4.726;2023-04-08T13:27:30;9.55;;;6.30;;
31754;SDS011;18325;52.018;4.726;2023-04-08T13:29:57;9.57;;;6.13;;
31754;SDS011;18325;52.018;4.726;2023-04-08T13:32:23;12.57;;;6.67;;
31754;SDS011;18325;52.018;4.726;2023-04-08T13:34:51;15.00;;;6.60;;
31754;SDS011;18325;52.018;4.726;2023-04-08T13:37:17;11.43;;;6.30;;
31754;SDS011;18325;52.018;4.726;2023-04-08T13:39:44;12.02;;;6.22;;
31754;SDS011;18325;52.018;4.726;2023-04-08T13:42:10;10.75;;;6.28;;
31754;SDS011;18325;52.018;4.726;2023-04-08T13:44:36;11.85;;;6.05;;
31754;SDS011;18325;52.018;4.726;2023-04-08T13:47:03;8.83;;;5.73;;
31754;SDS011;18325;52.018;4.726;2023-04-08T13:51:57;19.77;;;6.50;;
31754;SDS011;18325;52.018;4.726;2023-04-08T13:54:23;12.50;;;6.10;;
31754;SDS011;18325;52.018;4.726;2023-04-08T13:56:50;10.87;;;4.77;;
31754;SDS011;18325;52.018;4.726;2023-04-08T13:59:16;9.77;;;5.20;;
31754;SDS011;18325;52.018;4.726;2023-04-08T14:01:43;12.63;;;5.50;;
31754;SDS011;18325;52.018;4.726;2023-04-08T14:04:09;10.75;;;5.10;;
31754;SDS011;18325;52.018;4.726;2023-04-08T14:06:36;10.32;;;5.32;;
31754;SDS011;18325;52.018;4.726;2023-04-08T14:09:04;10.23;;;4.90;;
31754;SDS011;18325;52.018;4.726;2023-04-08T14:11:30;9.33;;;4.87;;
31754;SDS011;18325;52.018;4.726;2023-04-08T14:13:57;10.87;;;6.53;;
31754;SDS011;18325;52.018;4.726;2023-04-08T14:16:23;9.73;;;5.17;;
31754;SDS011;18325;52.018;4.726;2023-04-08T14:18:50;9.40;;;5.40;;
31754;SDS011;18325;52.018;4.726;2023-04-08T14:21:17;9.43;;;5.23;;
31754;SDS011;18325;52.018;4.726;2023-04-08T14:23:43;10.83;;;5.20;;
31754;SDS011;18325;52.018;4.726;2023-04-08T14:26:12;12.87;;;6.70;;
31754;SDS011;18325;52.018;4.726;2023-04-08T14:28:38;11.23;;;6.40;;
31754;SDS011;18325;52.018;4.726;2023-04-08T14:31:05;14.67;;;5.80;;
31754;SDS011;18325;52.018;4.726;2023-04-08T14:33:31;10.17;;;5.40;;
31754;SDS011;18325;52.018;4.726;2023-04-08T14:35:57;11.00;;;5.67;;
31754;SDS011;18325;52.018;4.726;2023-04-08T14:38:24;9.87;;;6.00;;
31754;SDS011;18325;52.018;4.726;2023-04-08T14:40:51;10.10;;;5.23;;
31754;SDS011;18325;52.018;4.726;2023-04-08T14:43:19;8.47;;;5.70;;
31754;SDS011;18325;52.018;4.726;2023-04-08T14:45:46;7.90;;;5.03;;